createdAt,value
2017-10-02T00:01:32.303Z,6.55
2017-10-02T00:04:00.568Z,6.50
2017-10-02T00:06:28.839Z,7.00
2017-10-02T00:08:57.103Z,5.70
2017-10-02T00:11:25.587Z,7.70
2017-10-02T00:13:53.805Z,6.12
2017-10-02T00:16:22.033Z,6.28
2017-10-02T00:18:50.428Z,5.37
2017-10-02T00:21:18.654Z,6.55
2017-10-02T00:23:46.880Z,6.35
2017-10-02T00:26:15.125Z,6.57
2017-10-02T00:28:43.357Z,6.95
2017-10-02T00:31:11.590Z,7.12
2017-10-02T00:33:40.617Z,5.68
2017-10-02T00:36:08.841Z,5.40
2017-10-02T00:38:37.066Z,5.95
2017-10-02T00:41:05.496Z,6.20
2017-10-02T00:43:33.724Z,6.75
2017-10-02T00:46:01.954Z,5.75
2017-10-02T00:48:30.230Z,6.75
2017-10-02T00:50:58.443Z,5.82
2017-10-02T00:53:26.665Z,7.53
2017-10-02T00:55:54.930Z,5.93
2017-10-02T00:58:23.152Z,7.45
2017-10-02T01:00:51.381Z,6.47
2017-10-02T01:03:19.645Z,6.15
2017-10-02T01:05:47.877Z,6.90
2017-10-02T01:08:16.098Z,7.12
2017-10-02T01:10:44.528Z,6.05
2017-10-02T01:13:12.758Z,6.90
2017-10-02T01:15:40.985Z,5.82
2017-10-02T01:18:09.229Z,5.85
2017-10-02T01:20:37.457Z,5.32
2017-10-02T01:23:05.685Z,5.75
2017-10-02T01:25:34.905Z,5.20
2017-10-02T01:28:03.141Z,6.15
2017-10-02T01:30:31.365Z,6.75
2017-10-02T01:32:59.649Z,6.62
2017-10-02T01:35:27.906Z,7.10
2017-10-02T01:37:57.729Z,6.65
2017-10-02T01:40:26.119Z,6.65
2017-10-02T01:42:54.354Z,6.90
2017-10-02T01:45:22.573Z,5.30
2017-10-02T01:47:50.834Z,6.07
2017-10-02T01:50:19.078Z,7.22
2017-10-02T01:52:47.317Z,5.10
2017-10-02T01:55:15.580Z,6.87
2017-10-02T01:57:43.814Z,6.47
2017-10-02T02:00:12.042Z,5.72
2017-10-02T02:02:41.073Z,6.03
2017-10-02T02:05:09.310Z,6.47
2017-10-02T02:07:37.533Z,5.93
2017-10-02T02:10:06.563Z,5.40
2017-10-02T02:12:34.802Z,8.20
2017-10-02T02:15:03.029Z,7.45
2017-10-02T02:17:31.306Z,6.20
2017-10-02T02:20:00.305Z,5.55
2017-10-02T02:22:28.521Z,6.12
2017-10-02T02:24:56.782Z,6.03
2017-10-02T02:27:25.006Z,6.32
2017-10-02T02:29:53.234Z,6.70
2017-10-02T02:32:21.502Z,6.40
2017-10-02T02:34:49.748Z,6.82
2017-10-02T02:37:17.977Z,6.68
2017-10-02T02:39:46.240Z,5.90
2017-10-02T02:42:14.466Z,5.82
2017-10-02T02:44:42.701Z,7.57
2017-10-02T02:47:10.958Z,5.60
2017-10-02T02:49:39.176Z,5.50
2017-10-02T02:52:07.412Z,6.72
2017-10-02T02:54:35.669Z,4.82
2017-10-02T02:57:03.902Z,8.07
2017-10-02T02:59:32.152Z,5.57
2017-10-02T03:02:01.169Z,6.68
2017-10-02T03:04:29.401Z,6.40
2017-10-02T03:06:57.625Z,5.47
2017-10-02T03:09:25.897Z,5.65
2017-10-02T03:11:54.888Z,5.57
2017-10-02T03:14:23.885Z,6.65
2017-10-02T03:16:52.137Z,8.73
2017-10-02T03:19:20.361Z,6.40
2017-10-02T03:21:48.593Z,6.85
2017-10-02T03:24:16.853Z,5.70
2017-10-02T03:26:45.854Z,6.18
2017-10-02T03:29:14.077Z,6.82
2017-10-02T03:31:42.336Z,6.97
2017-10-02T03:34:10.565Z,7.10
2017-10-02T03:36:39.565Z,7.05
2017-10-02T03:39:07.957Z,6.47
2017-10-02T03:41:36.177Z,7.57
2017-10-02T03:44:04.405Z,5.47
2017-10-02T03:46:32.841Z,6.32
2017-10-02T03:49:01.073Z,6.78
2017-10-02T03:51:29.305Z,5.45
2017-10-02T03:53:58.329Z,6.50
2017-10-02T03:56:26.562Z,6.35
2017-10-02T03:58:56.264Z,7.20
2017-10-02T04:01:24.537Z,5.93
2017-10-02T04:03:52.765Z,6.90
2017-10-02T04:06:21.752Z,6.18
2017-10-02T04:08:50.257Z,6.80
2017-10-02T04:11:18.484Z,6.60
2017-10-02T04:13:46.721Z,7.07
2017-10-02T04:16:15.745Z,5.25
2017-10-02T04:18:43.973Z,5.78
2017-10-02T04:21:12.964Z,6.62
2017-10-02T04:23:41.221Z,6.47
2017-10-02T04:26:09.453Z,6.78
2017-10-02T04:28:38.453Z,6.82
2017-10-02T04:31:07.474Z,6.35
2017-10-02T04:33:35.705Z,7.70
2017-10-02T04:36:03.945Z,6.30
2017-10-02T04:38:32.969Z,6.20
2017-10-02T04:41:01.193Z,8.35
2017-10-02T04:43:29.425Z,7.87
2017-10-02T04:45:57.693Z,7.45
2017-10-02T04:48:26.693Z,7.60
2017-10-02T04:50:54.929Z,7.97
2017-10-02T04:53:23.962Z,6.47
2017-10-02T04:55:52.201Z,6.45
2017-10-02T04:58:20.429Z,7.70
2017-10-02T05:00:48.697Z,7.00
2017-10-02T05:03:17.694Z,6.85
2017-10-02T05:05:45.926Z,8.18
2017-10-02T05:08:14.189Z,7.55
2017-10-02T05:10:43.189Z,9.55
2017-10-02T05:13:11.422Z,6.80
2017-10-02T05:15:39.706Z,6.50
2017-10-02T05:18:08.705Z,9.32
2017-10-02T05:20:36.942Z,8.18
2017-10-02T05:23:05.965Z,7.32
2017-10-02T05:25:34.198Z,7.55
2017-10-02T05:28:02.442Z,8.18
2017-10-02T05:30:31.478Z,8.88
2017-10-02T05:32:59.706Z,7.07
2017-10-02T05:35:27.952Z,9.30
2017-10-02T05:37:56.217Z,7.72
2017-10-02T05:40:24.458Z,8.30
2017-10-02T05:42:53.444Z,8.82
2017-10-02T05:45:22.501Z,9.13
2017-10-02T05:47:50.725Z,7.95
2017-10-02T05:50:18.957Z,8.77
2017-10-02T05:52:47.214Z,9.20
2017-10-02T05:55:15.454Z,9.10
2017-10-02T05:57:44.453Z,10.63
2017-10-02T06:00:12.718Z,9.20
2017-10-02T06:02:40.957Z,10.70
2017-10-02T06:05:09.973Z,10.70
2017-10-02T06:07:38.239Z,10.48
2017-10-02T06:10:06.477Z,11.70
2017-10-02T06:12:34.717Z,11.82
2017-10-02T06:15:03.949Z,12.37
2017-10-02T06:17:32.189Z,11.32
2017-10-02T06:20:00.430Z,11.95
2017-10-02T06:22:28.717Z,11.40
2017-10-02T06:24:56.953Z,11.90
2017-10-02T06:27:25.188Z,11.40
2017-10-02T06:29:54.337Z,11.50
2017-10-02T06:32:22.575Z,12.02
2017-10-02T06:34:50.814Z,15.90
2017-10-02T06:37:19.073Z,13.50
2017-10-02T06:39:48.082Z,14.10
2017-10-02T06:42:16.321Z,14.75
2017-10-02T06:44:44.577Z,13.90
2017-10-02T06:47:12.822Z,13.90
2017-10-02T06:49:41.821Z,13.02
2017-10-02T06:52:10.233Z,14.40
2017-10-02T06:54:38.460Z,14.85
2017-10-02T06:57:06.705Z,15.68
2017-10-02T06:59:34.978Z,14.55
2017-10-02T07:02:03.213Z,14.40
2017-10-02T07:04:32.246Z,13.88
2017-10-02T07:07:00.521Z,14.20
2017-10-02T07:09:28.765Z,13.40
2017-10-02T07:11:57.002Z,14.93
2017-10-02T07:14:25.275Z,12.48
2017-10-02T07:16:53.513Z,13.60
2017-10-02T07:19:21.752Z,12.63
2017-10-02T07:21:50.802Z,13.20
2017-10-02T07:24:20.557Z,12.37
2017-10-02T07:26:48.797Z,10.18
2017-10-02T07:29:17.089Z,9.05
2017-10-02T07:31:45.328Z,10.30
2017-10-02T07:34:13.569Z,10.30
2017-10-02T07:36:42.629Z,9.88
2017-10-02T07:39:10.872Z,10.95
2017-10-02T07:41:39.112Z,10.15
2017-10-02T07:44:07.393Z,9.73
2017-10-02T07:46:35.643Z,10.07
2017-10-02T07:49:03.882Z,10.13
2017-10-02T07:51:32.172Z,9.90
2017-10-02T07:54:00.411Z,8.93
2017-10-02T07:56:28.644Z,8.35
2017-10-02T07:58:56.921Z,8.95
2017-10-02T08:01:25.161Z,11.43
2017-10-02T08:03:53.404Z,8.60
2017-10-02T08:06:21.694Z,9.68
2017-10-02T08:08:49.941Z,10.02
2017-10-02T08:11:18.949Z,9.57
2017-10-02T08:13:47.338Z,9.05
2017-10-02T08:16:15.564Z,9.18
2017-10-02T08:18:43.800Z,8.63
2017-10-02T08:21:12.845Z,10.32
2017-10-02T08:23:41.089Z,8.63
2017-10-02T08:26:09.321Z,9.15
2017-10-02T08:28:38.446Z,8.50
2017-10-02T08:31:06.683Z,9.30
2017-10-02T08:33:34.916Z,8.68
2017-10-02T08:36:03.281Z,7.28
2017-10-02T08:38:31.527Z,8.50
2017-10-02T08:41:00.529Z,7.45
2017-10-02T08:43:28.801Z,7.87
2017-10-02T08:45:57.037Z,7.37
2017-10-02T08:48:25.279Z,8.30
2017-10-02T08:50:54.321Z,6.75
2017-10-02T08:53:22.561Z,7.50
2017-10-02T08:55:50.798Z,7.25
2017-10-02T08:58:19.090Z,6.45
2017-10-02T09:03:43.499Z,6.30
2017-10-02T09:06:11.754Z,7.32
2017-10-02T09:08:40.059Z,6.20
2017-10-02T09:11:08.331Z,6.45
2017-10-02T09:13:36.607Z,6.10
2017-10-02T09:16:04.886Z,5.75
2017-10-02T09:18:33.163Z,5.82
2017-10-02T09:21:01.495Z,5.43
2017-10-02T09:23:29.750Z,5.87
2017-10-02T09:25:58.018Z,4.90
2017-10-02T09:28:26.287Z,5.53
2017-10-02T09:30:54.590Z,5.57
2017-10-02T09:33:23.618Z,5.05
2017-10-02T09:35:51.892Z,5.53
2017-10-02T09:38:20.174Z,5.47
2017-10-02T09:40:48.435Z,5.45
2017-10-02T09:43:16.706Z,5.68
2017-10-02T09:45:44.970Z,4.80
2017-10-02T09:48:13.246Z,4.72
2017-10-02T09:50:42.279Z,4.47
2017-10-02T09:53:10.599Z,5.00
2017-10-02T09:55:38.862Z,5.53
2017-10-02T09:58:07.123Z,4.70
2017-10-02T10:00:35.419Z,4.93
2017-10-02T10:03:04.907Z,5.25
2017-10-02T10:05:33.191Z,4.85
2017-10-02T10:08:01.446Z,4.10
2017-10-02T10:10:29.754Z,4.75
2017-10-02T10:12:58.014Z,4.55
2017-10-02T10:15:26.279Z,4.45
2017-10-02T10:17:54.565Z,4.50
2017-10-02T10:20:22.833Z,4.93
2017-10-02T10:22:51.118Z,3.70
2017-10-02T10:25:19.370Z,3.67
2017-10-02T10:27:47.871Z,4.15
2017-10-02T10:30:16.912Z,4.28
2017-10-02T10:32:45.171Z,4.53
2017-10-02T10:35:13.463Z,4.95
2017-10-02T10:37:41.722Z,3.97
2017-10-02T10:40:10.016Z,4.43
2017-10-02T10:42:38.274Z,3.67
2017-10-02T10:45:06.707Z,3.67
2017-10-02T10:47:34.971Z,4.07
2017-10-02T10:50:03.230Z,3.92
2017-10-02T10:52:31.506Z,3.70
2017-10-02T10:55:00.535Z,4.20
2017-10-02T10:57:28.815Z,2.85
2017-10-02T10:59:57.075Z,3.85
2017-10-02T11:02:25.351Z,3.33
2017-10-02T11:04:53.610Z,3.08
2017-10-02T11:07:21.902Z,3.22
2017-10-02T11:09:50.182Z,3.55
2017-10-02T11:12:18.443Z,2.87
2017-10-02T11:14:46.723Z,2.95
2017-10-02T11:17:14.987Z,3.28
2017-10-02T11:19:43.263Z,3.25
2017-10-02T11:22:11.523Z,3.10
2017-10-02T11:24:39.876Z,2.55
2017-10-02T11:27:08.138Z,3.80
2017-10-02T11:29:36.411Z,3.10
2017-10-02T11:32:04.696Z,2.80
2017-10-02T11:34:32.971Z,3.30
2017-10-02T11:37:02.006Z,2.50
2017-10-02T11:39:30.272Z,2.80
2017-10-02T11:41:58.738Z,2.70
2017-10-02T11:44:27.011Z,2.83
2017-10-02T11:46:55.267Z,2.12
2017-10-02T11:49:23.546Z,2.97
2017-10-02T11:51:51.819Z,3.15
2017-10-02T11:54:20.857Z,2.60
2017-10-02T11:56:49.114Z,2.92
2017-10-02T11:59:17.390Z,2.62
2017-10-02T12:01:45.650Z,2.65
2017-10-02T12:04:13.935Z,2.80
2017-10-02T12:06:42.967Z,2.90
2017-10-02T12:09:11.253Z,2.40
2017-10-02T12:11:39.518Z,2.47
2017-10-02T12:14:07.853Z,2.20
2017-10-02T12:16:36.123Z,3.33
2017-10-02T12:19:04.395Z,2.17
2017-10-02T12:21:32.663Z,2.55
2017-10-02T12:24:00.922Z,2.60
2017-10-02T12:26:29.203Z,2.40
2017-10-02T12:28:58.246Z,2.05
2017-10-02T12:31:26.531Z,2.53
2017-10-02T12:33:54.994Z,2.30
2017-10-02T12:36:24.035Z,2.53
2017-10-02T12:38:52.310Z,2.67
2017-10-02T12:41:20.586Z,2.03
2017-10-02T12:43:48.855Z,2.35
2017-10-02T12:46:17.115Z,2.47
2017-10-02T12:48:45.440Z,2.35
2017-10-02T12:51:13.829Z,1.83
2017-10-02T12:53:42.074Z,2.37
2017-10-02T12:56:10.376Z,2.28
2017-10-02T12:58:39.411Z,2.10
2017-10-02T13:01:07.686Z,2.37
2017-10-02T13:03:35.951Z,2.10
2017-10-02T13:06:04.244Z,2.10
2017-10-02T13:08:33.275Z,2.30
2017-10-02T13:11:01.535Z,2.30
2017-10-02T13:13:29.818Z,1.90
2017-10-02T13:15:59.598Z,2.10
2017-10-02T13:18:27.858Z,2.10
2017-10-02T13:20:56.170Z,2.20
2017-10-02T13:23:24.443Z,3.17
2017-10-02T13:25:52.706Z,2.28
2017-10-02T13:28:20.982Z,2.22
2017-10-02T13:30:49.267Z,2.42
2017-10-02T13:33:17.534Z,2.50
2017-10-02T13:35:45.845Z,2.58
2017-10-02T13:38:14.133Z,2.47
2017-10-02T13:40:42.418Z,2.10
2017-10-02T13:43:10.703Z,2.67
2017-10-02T13:45:38.992Z,3.03
2017-10-02T13:48:08.027Z,3.10
2017-10-02T13:50:36.332Z,3.65
2017-10-02T13:53:05.359Z,2.70
2017-10-02T13:55:33.661Z,3.12
2017-10-02T13:58:02.686Z,3.20
2017-10-02T14:00:30.951Z,2.80
2017-10-02T14:02:59.231Z,3.25
2017-10-02T14:05:27.495Z,3.55
2017-10-02T14:07:55.783Z,3.22
2017-10-02T14:10:24.819Z,3.28
2017-10-02T14:12:53.310Z,3.37
2017-10-02T14:15:21.579Z,3.85
2017-10-02T14:17:49.843Z,3.90
2017-10-02T14:20:18.895Z,3.37
2017-10-02T14:22:47.163Z,3.12
2017-10-02T14:25:15.441Z,3.28
2017-10-02T14:27:44.470Z,3.12
2017-10-02T14:30:12.746Z,3.70
2017-10-02T14:32:41.011Z,3.10
2017-10-02T14:35:09.290Z,3.05
2017-10-02T14:37:37.583Z,3.70
2017-10-02T14:40:06.667Z,3.53
2017-10-02T14:42:34.936Z,3.30
2017-10-02T14:45:03.278Z,4.37
2017-10-02T14:47:32.318Z,4.03
2017-10-02T14:50:00.579Z,3.85
2017-10-02T14:52:28.859Z,4.20
2017-10-02T14:54:57.132Z,4.05
2017-10-02T14:57:26.203Z,3.85
2017-10-02T14:59:54.473Z,3.40
2017-10-02T15:02:23.498Z,4.35
2017-10-02T15:04:51.783Z,3.60
2017-10-02T15:07:20.043Z,4.10
2017-10-02T15:09:48.323Z,3.97
2017-10-02T15:12:16.587Z,4.97
2017-10-02T15:14:45.055Z,4.80
2017-10-02T15:17:13.314Z,4.60
2017-10-02T15:19:42.314Z,3.97
2017-10-02T15:22:10.623Z,4.72
2017-10-02T15:24:38.887Z,4.90
2017-10-02T15:27:07.163Z,5.37
2017-10-02T15:29:35.424Z,4.80
2017-10-02T15:32:03.718Z,4.90
2017-10-02T15:34:32.755Z,5.28
2017-10-02T15:37:01.015Z,4.75
2017-10-02T15:39:29.299Z,4.72
2017-10-02T15:41:59.067Z,6.40
2017-10-02T15:44:27.347Z,5.25
2017-10-02T15:46:55.612Z,6.10
2017-10-02T15:49:24.675Z,5.40
2017-10-02T15:51:52.943Z,6.45
2017-10-02T15:54:21.211Z,6.55
2017-10-02T15:56:49.502Z,7.72
2017-10-02T15:59:18.610Z,6.80
2017-10-02T16:01:46.882Z,6.78
2017-10-02T16:04:15.146Z,7.18
2017-10-02T16:06:43.618Z,7.00
2017-10-02T16:09:11.887Z,6.45
2017-10-02T16:11:40.150Z,7.30
2017-10-02T16:14:08.442Z,7.80
2017-10-02T16:16:36.695Z,7.03
2017-10-02T16:19:05.747Z,7.47
2017-10-02T16:21:34.011Z,6.47
2017-10-02T16:24:02.336Z,7.95
2017-10-02T16:26:30.607Z,6.72
2017-10-02T16:28:58.863Z,6.68
2017-10-02T16:31:27.148Z,7.07
2017-10-02T16:33:55.414Z,6.10
2017-10-02T16:36:23.690Z,6.97
2017-10-02T16:38:51.962Z,6.95
2017-10-02T16:41:20.529Z,6.75
2017-10-02T16:43:48.787Z,6.70
2017-10-02T16:46:18.558Z,5.72
2017-10-02T16:48:46.830Z,6.28
2017-10-02T16:51:15.090Z,6.55
2017-10-02T16:53:43.366Z,6.68
2017-10-02T16:56:11.626Z,7.05
2017-10-02T16:58:40.116Z,6.90
2017-10-02T17:01:09.139Z,6.55
2017-10-02T17:03:37.425Z,6.62
2017-10-02T17:06:05.691Z,6.97
2017-10-02T17:08:33.950Z,6.47
2017-10-02T17:11:02.238Z,7.00
2017-10-02T17:13:31.272Z,8.55
2017-10-02T17:16:00.479Z,8.18
2017-10-02T17:18:28.748Z,7.53
2017-10-02T17:20:57.786Z,7.12
2017-10-02T17:23:26.067Z,6.87
2017-10-02T17:25:54.334Z,7.57
2017-10-02T17:28:22.619Z,6.90
2017-10-02T17:30:51.648Z,7.30
2017-10-02T17:33:19.936Z,7.25
2017-10-02T17:35:48.202Z,7.40
2017-10-02T17:38:16.477Z,7.78
2017-10-02T17:40:45.571Z,7.45
2017-10-02T17:43:13.851Z,7.57
2017-10-02T17:45:42.134Z,14.75
2017-10-02T17:48:11.264Z,7.00
2017-10-02T17:50:40.440Z,10.60
2017-10-02T17:53:08.738Z,7.87
2017-10-02T17:55:37.006Z,9.50
2017-10-02T17:58:05.296Z,8.50
2017-10-02T18:00:33.559Z,7.03
2017-10-02T18:03:01.839Z,7.37
2017-10-02T18:05:30.115Z,6.15
2017-10-02T18:07:59.359Z,6.70
2017-10-02T18:10:27.627Z,5.87
2017-10-02T18:12:55.895Z,5.78
2017-10-02T18:15:24.171Z,6.07
2017-10-02T18:17:52.440Z,6.07
2017-10-02T18:20:20.728Z,5.10
2017-10-02T18:22:49.000Z,5.32
2017-10-02T18:25:18.193Z,5.10
2017-10-02T18:27:47.231Z,5.40
2017-10-02T18:30:15.499Z,4.72
2017-10-02T18:32:43.793Z,4.78
2017-10-02T18:35:12.044Z,4.72
2017-10-02T18:37:40.326Z,4.40
2017-10-02T18:40:09.358Z,4.90
2017-10-02T18:42:37.785Z,4.93
2017-10-02T18:45:06.050Z,4.25
2017-10-02T18:47:34.320Z,4.87
2017-10-02T18:50:02.595Z,4.87
2017-10-02T18:52:30.855Z,4.18
2017-10-02T18:54:59.138Z,4.35
2017-10-02T18:57:27.408Z,4.10
2017-10-02T18:59:55.694Z,4.55
2017-10-02T19:02:24.723Z,4.70
2017-10-02T19:04:53.039Z,4.40
2017-10-02T19:07:22.314Z,3.90
2017-10-02T19:09:50.716Z,4.95
2017-10-02T19:12:18.995Z,4.75
2017-10-02T19:14:47.259Z,4.15
2017-10-02T19:17:15.538Z,4.05
2017-10-02T19:19:43.803Z,4.07
2017-10-02T19:22:12.083Z,3.80
2017-10-02T19:24:41.128Z,4.55
2017-10-02T19:27:09.427Z,3.25
2017-10-02T19:29:38.475Z,4.15
2017-10-02T19:32:06.830Z,3.62
2017-10-02T19:34:35.119Z,3.83
2017-10-02T19:37:03.378Z,4.07
2017-10-02T19:39:32.434Z,3.67
2017-10-02T19:42:00.695Z,3.45
2017-10-02T19:44:28.998Z,3.50
2017-10-02T19:46:58.026Z,3.72
2017-10-02T19:49:26.295Z,3.70
2017-10-02T19:51:54.579Z,3.70
2017-10-02T19:54:22.847Z,3.37
2017-10-02T19:56:51.886Z,3.37
2017-10-02T19:59:20.151Z,2.80
2017-10-02T20:01:48.868Z,2.33
2017-10-02T20:04:17.902Z,2.58
2017-10-02T20:06:46.166Z,2.08
2017-10-02T20:09:14.459Z,1.52
2017-10-02T20:11:44.312Z,1.30
2017-10-02T20:14:12.587Z,1.30
2017-10-02T20:16:40.847Z,1.52
2017-10-02T20:19:10.027Z,1.65
2017-10-02T20:21:38.291Z,1.35
2017-10-02T20:24:06.551Z,1.33
2017-10-02T20:26:35.794Z,1.10
2017-10-02T20:29:04.051Z,1.35
2017-10-02T20:31:32.410Z,1.10
2017-10-02T20:34:00.700Z,1.30
2017-10-02T20:36:28.982Z,1.60
2017-10-02T20:38:57.250Z,1.17
2017-10-02T20:41:25.511Z,1.80
2017-10-02T20:43:53.790Z,1.40
2017-10-02T20:46:22.075Z,1.60
2017-10-02T20:48:51.120Z,1.83
2017-10-02T20:51:19.382Z,1.50
2017-10-02T20:53:47.687Z,2.30
2017-10-02T20:56:15.947Z,2.17
2017-10-02T20:58:44.217Z,2.85
2017-10-02T21:01:12.501Z,3.17
2017-10-02T21:03:40.759Z,2.45
2017-10-02T21:06:09.044Z,3.42
2017-10-02T21:08:37.302Z,2.62
2017-10-02T21:11:05.603Z,3.35
2017-10-02T21:13:33.876Z,4.32
2017-10-02T21:16:02.139Z,3.85
2017-10-02T21:18:30.431Z,3.47
2017-10-02T21:20:58.694Z,3.60
2017-10-02T21:23:27.100Z,3.72
2017-10-02T21:25:55.343Z,3.55
2017-10-02T21:28:23.680Z,3.62
2017-10-02T21:30:51.947Z,2.75
2017-10-02T21:33:20.250Z,2.70
2017-10-02T21:35:48.511Z,2.70
2017-10-02T21:38:17.551Z,2.42
2017-10-02T21:40:45.838Z,5.62
2017-10-02T21:43:14.095Z,2.75
2017-10-02T21:45:42.558Z,2.05
2017-10-02T21:48:10.823Z,1.90
2017-10-02T21:50:39.092Z,2.15
2017-10-02T21:53:07.376Z,2.10
2017-10-02T21:55:35.636Z,2.00
2017-10-02T21:58:03.914Z,2.60
2017-10-02T22:00:32.174Z,2.08
2017-10-02T22:03:00.450Z,1.98
2017-10-02T22:05:28.710Z,1.70
2017-10-02T22:07:57.006Z,2.28
2017-10-02T22:10:26.771Z,2.60
2017-10-02T22:12:55.031Z,2.30
2017-10-02T22:15:23.313Z,1.98
2017-10-02T22:17:51.572Z,2.25
2017-10-02T22:20:19.856Z,2.45
2017-10-02T22:22:48.126Z,2.42
2017-10-02T22:25:17.184Z,2.45
2017-10-02T22:27:46.228Z,2.10
2017-10-02T22:30:14.486Z,2.72
2017-10-02T22:32:42.763Z,2.60
2017-10-02T22:35:11.027Z,2.80
2017-10-02T22:37:39.308Z,2.50
2017-10-02T22:40:07.567Z,3.37
2017-10-02T22:42:35.853Z,3.40
2017-10-02T22:45:04.867Z,3.37
2017-10-02T22:47:33.164Z,3.47
2017-10-02T22:50:01.439Z,3.40
2017-10-02T22:52:30.465Z,3.10
2017-10-02T22:54:58.756Z,3.35
2017-10-02T22:57:27.024Z,3.25
2017-10-02T22:59:55.298Z,3.47
2017-10-02T23:02:23.563Z,4.15
2017-10-02T23:04:52.839Z,2.80
2017-10-02T23:07:21.108Z,4.53
2017-10-02T23:09:49.367Z,3.37
2017-10-02T23:12:17.646Z,2.80
2017-10-02T23:14:46.670Z,2.80
2017-10-02T23:17:14.948Z,3.10
2017-10-02T23:19:43.215Z,3.72
2017-10-02T23:22:11.506Z,3.10
2017-10-02T23:24:40.531Z,3.17
2017-10-02T23:27:08.812Z,3.55
2017-10-02T23:29:37.078Z,3.60
2017-10-02T23:32:05.335Z,3.55
2017-10-02T23:34:33.614Z,3.80
2017-10-02T23:37:01.879Z,3.83
2017-10-02T23:39:30.158Z,3.30
2017-10-02T23:41:59.190Z,3.80
2017-10-02T23:44:27.450Z,3.47
2017-10-02T23:46:55.726Z,3.53
2017-10-02T23:49:23.995Z,2.97
2017-10-02T23:51:52.279Z,3.20
2017-10-02T23:54:21.308Z,3.30
2017-10-02T23:56:49.580Z,3.60
2017-10-02T23:59:17.847Z,3.10
